sensor_id;sensor_type;location;lat;lon;timestamp;temperature;humidity
7155;DHT22;3619;53.784;10.440;2023-04-01T00:00:25;10.00;99.90
7155;DHT22;3619;53.784;10.440;2023-04-01T00:02:52;10.00;99.90
7155;DHT22;3619;53.784;10.440;2023-04-01T00:05:18;10.00;99.90
7155;DHT22;3619;53.784;10.440;2023-04-01T00:07:45;10.00;99.90
7155;DHT22;3619;53.784;10.440;2023-04-01T00:10:13;10.00;99.90
7155;DHT22;3619;53.784;10.440;2023-04-01T00:12:40;10.00;99.90
7155;DHT22;3619;53.784;10.440;2023-04-01T00:15:10;10.00;99.90
7155;DHT22;3619;53.784;10.440;2023-04-01T00:17:37;9.90;99.90
7155;DHT22;3619;53.784;10.440;2023-04-01T00:20:05;9.90;99.90
7155;DHT22;3619;53.784;10.440;2023-04-01T00:22:32;9.90;99.90
7155;DHT22;3619;53.784;10.440;2023-04-01T00:24:59;9.90;99.90
7155;DHT22;3619;53.784;10.440;2023-04-01T00:27:27;9.90;99.90
7155;DHT22;3619;53.784;10.440;2023-04-01T00:29:54;9.90;99.90
7155;DHT22;3619;53.784;10.440;2023-04-01T00:32:21;9.80;99.90
7155;DHT22;3619;53.784;10.440;2023-04-01T00:34:50;9.80;99.90
7155;DHT22;3619;53.784;10.440;2023-04-01T00:37:17;9.80;99.90
7155;DHT22;3619;53.784;10.440;2023-04-01T00:39:46;9.80;99.90
7155;DHT22;3619;53.784;10.440;2023-04-01T00:42:14;9.80;99.90
7155;DHT22;3619;53.784;10.440;2023-04-01T00:44:42;9.80;99.90
7155;DHT22;3619;53.784;10.440;2023-04-01T00:47:09;9.80;99.90
7155;DHT22;3619;53.784;10.440;2023-04-01T00:49:41;9.80;99.90
7155;DHT22;3619;53.784;10.440;2023-04-01T00:52:12;9.80;99.90
7155;DHT22;3619;53.784;10.440;2023-04-01T00:54:41;9.70;99.90
7155;DHT22;3619;53.784;10.440;2023-04-01T00:57:12;9.80;99.90
7155;DHT22;3619;53.784;10.440;2023-04-01T00:59:45;9.80;99.90
7155;DHT22;3619;53.784;10.440;2023-04-01T01:02:14;9.70;99.90
7155;DHT22;3619;53.784;10.440;2023-04-01T01:04:41;9.70;99.90
7155;DHT22;3619;53.784;10.440;2023-04-01T01:07:17;9.70;99.90
7155;DHT22;3619;53.784;10.440;2023-04-01T01:09:52;9.70;99.90
7155;DHT22;3619;53.784;10.440;2023-04-01T01:12:29;9.70;99.90
7155;DHT22;3619;53.784;10.440;2023-04-01T01:15:06;9.60;99.90
7155;DHT22;3619;53.784;10.440;2023-04-01T01:17:44;9.60;99.90
7155;DHT22;3619;53.784;10.440;2023-04-01T01:20:28;9.60;99.90
7155;DHT22;3619;53.784;10.440;2023-04-01T01:23:21;9.60;99.90
7155;DHT22;3619;53.784;10.440;2023-04-01T01:26:02;9.60;99.90
7155;DHT22;3619;53.784;10.440;2023-04-01T01:28:38;9.70;99.90
7155;DHT22;3619;53.784;10.440;2023-04-01T01:31:17;9.70;99.90
7155;DHT22;3619;53.784;10.440;2023-04-01T01:33:53;9.70;99.90
7155;DHT22;3619;53.784;10.440;2023-04-01T01:36:28;9.60;99.90
7155;DHT22;3619;53.784;10.440;2023-04-01T01:39:01;9.60;99.90
7155;DHT22;3619;53.784;10.440;2023-04-01T01:41:29;9.60;99.90
7155;DHT22;3619;53.784;10.440;2023-04-01T01:43:58;9.70;99.90
7155;DHT22;3619;53.784;10.440;2023-04-01T01:46:26;9.60;99.90
7155;DHT22;3619;53.784;10.440;2023-04-01T01:48:55;9.60;99.90
7155;DHT22;3619;53.784;10.440;2023-04-01T01:51:23;9.70;99.90
7155;DHT22;3619;53.784;10.440;2023-04-01T01:53:51;9.70;99.90
7155;DHT22;3619;53.784;10.440;2023-04-01T01:56:22;9.60;99.90
7155;DHT22;3619;53.784;10.440;2023-04-01T01:58:51;9.60;99.90
7155;DHT22;3619;53.784;10.440;2023-04-01T02:01:21;9.70;99.90
7155;DHT22;3619;53.784;10.440;2023-04-01T02:03:50;9.70;99.90
7155;DHT22;3619;53.784;10.440;2023-04-01T02:06:21;9.70;99.90
7155;DHT22;3619;53.784;10.440;2023-04-01T02:08:52;9.70;99.90
7155;DHT22;3619;53.784;10.440;2023-04-01T02:11:26;9.70;99.90
7155;DHT22;3619;53.784;10.440;2023-04-01T02:13:55;9.70;99.90
7155;DHT22;3619;53.784;10.440;2023-04-01T02:16:30;9.60;99.90
7155;DHT22;3619;53.784;10.440;2023-04-01T02:19:00;9.60;99.90
7155;DHT22;3619;53.784;10.440;2023-04-01T02:21:31;9.70;99.90
7155;DHT22;3619;53.784;10.440;2023-04-01T02:24:05;9.70;99.90
7155;DHT22;3619;53.784;10.440;2023-04-01T02:26:39;9.70;99.90
7155;DHT22;3619;53.784;10.440;2023-04-01T02:29:08;9.70;99.90
7155;DHT22;3619;53.784;10.440;2023-04-01T02:31:36;9.70;99.90
7155;DHT22;3619;53.784;10.440;2023-04-01T02:34:03;9.70;99.90
7155;DHT22;3619;53.784;10.440;2023-04-01T02:36:31;9.70;99.90
7155;DHT22;3619;53.784;10.440;2023-04-01T02:38:59;9.70;99.90
7155;DHT22;3619;53.784;10.440;2023-04-01T02:41:27;9.70;99.90
7155;DHT22;3619;53.784;10.440;2023-04-01T02:43:54;9.70;99.90
7155;DHT22;3619;53.784;10.440;2023-04-01T02:46:22;9.70;99.90
7155;DHT22;3619;53.784;10.440;2023-04-01T02:48:51;9.70;99.90
7155;DHT22;3619;53.784;10.440;2023-04-01T02:51:19;9.70;99.90
7155;DHT22;3619;53.784;10.440;2023-04-01T02:53:45;9.60;99.90
7155;DHT22;3619;53.784;10.440;2023-04-01T02:56:13;9.60;99.90
7155;DHT22;3619;53.784;10.440;2023-04-01T02:58:40;9.70;99.90
7155;DHT22;3619;53.784;10.440;2023-04-01T03:01:07;9.70;99.90
7155;DHT22;3619;53.784;10.440;2023-04-01T03:03:34;9.60;99.90
7155;DHT22;3619;53.784;10.440;2023-04-01T03:06:05;9.70;99.90
7155;DHT22;3619;53.784;10.440;2023-04-01T03:08:35;9.60;99.90
7155;DHT22;3619;53.784;10.440;2023-04-01T03:11:02;9.60;99.90
7155;DHT22;3619;53.784;10.440;2023-04-01T03:13:30;9.70;99.90
7155;DHT22;3619;53.784;10.440;2023-04-01T03:15:57;9.60;99.90
7155;DHT22;3619;53.784;10.440;2023-04-01T03:18:23;9.60;99.90
7155;DHT22;3619;53.784;10.440;2023-04-01T03:20:50;9.60;99.90
7155;DHT22;3619;53.784;10.440;2023-04-01T03:23:20;9.50;99.90
7155;DHT22;3619;53.784;10.440;2023-04-01T03:25:47;9.50;99.90
7155;DHT22;3619;53.784;10.440;2023-04-01T03:28:14;9.30;99.90
7155;DHT22;3619;53.784;10.440;2023-04-01T03:30:42;9.00;99.90
7155;DHT22;3619;53.784;10.440;2023-04-01T03:33:08;8.90;99.90
7155;DHT22;3619;53.784;10.440;2023-04-01T03:35:35;8.70;99.90
7155;DHT22;3619;53.784;10.440;2023-04-01T03:38:02;8.60;99.90
7155;DHT22;3619;53.784;10.440;2023-04-01T03:40:29;8.50;99.90
7155;DHT22;3619;53.784;10.440;2023-04-01T03:42:58;8.30;99.90
7155;DHT22;3619;53.784;10.440;2023-04-01T03:45:25;8.30;99.90
7155;DHT22;3619;53.784;10.440;2023-04-01T03:47:53;8.30;99.90
7155;DHT22;3619;53.784;10.440;2023-04-01T03:50:20;8.10;99.90
7155;DHT22;3619;53.784;10.440;2023-04-01T03:52:47;8.00;99.90
7155;DHT22;3619;53.784;10.440;2023-04-01T03:55:16;8.00;99.90
7155;DHT22;3619;53.784;10.440;2023-04-01T03:57:44;7.90;99.90
7155;DHT22;3619;53.784;10.440;2023-04-01T04:00:13;7.80;99.90
7155;DHT22;3619;53.784;10.440;2023-04-01T04:02:40;7.70;99.90
7155;DHT22;3619;53.784;10.440;2023-04-01T04:05:09;7.60;99.90
7155;DHT22;3619;53.784;10.440;2023-04-01T04:07:36;7.60;99.90
7155;DHT22;3619;53.784;10.440;2023-04-01T04:10:03;7.40;99.90
7155;DHT22;3619;53.784;10.440;2023-04-01T04:12:30;7.30;99.90
7155;DHT22;3619;53.784;10.440;2023-04-01T04:14:57;7.30;99.90
7155;DHT22;3619;53.784;10.440;2023-04-01T04:17:24;7.20;99.90
7155;DHT22;3619;53.784;10.440;2023-04-01T04:19:51;7.20;99.90
7155;DHT22;3619;53.784;10.440;2023-04-01T04:22:19;7.10;99.90
7155;DHT22;3619;53.784;10.440;2023-04-01T04:24:46;7.10;99.90
7155;DHT22;3619;53.784;10.440;2023-04-01T04:27:13;7.10;99.90
7155;DHT22;3619;53.784;10.440;2023-04-01T04:29:39;7.00;99.90
7155;DHT22;3619;53.784;10.440;2023-04-01T04:32:06;6.90;99.90
7155;DHT22;3619;53.784;10.440;2023-04-01T04:34:33;6.90;99.90
7155;DHT22;3619;53.784;10.440;2023-04-01T04:37:00;6.90;99.90
7155;DHT22;3619;53.784;10.440;2023-04-01T04:39:28;6.80;99.90
7155;DHT22;3619;53.784;10.440;2023-04-01T04:41:55;6.80;99.90
7155;DHT22;3619;53.784;10.440;2023-04-01T04:44:22;6.80;99.90
7155;DHT22;3619;53.784;10.440;2023-04-01T04:46:50;6.70;99.90
7155;DHT22;3619;53.784;10.440;2023-04-01T04:49:16;6.70;99.90
7155;DHT22;3619;53.784;10.440;2023-04-01T04:51:45;6.70;99.90
7155;DHT22;3619;53.784;10.440;2023-04-01T04:54:11;6.70;99.90
7155;DHT22;3619;53.784;10.440;2023-04-01T04:56:40;6.70;99.90
7155;DHT22;3619;53.784;10.440;2023-04-01T04:59:06;6.70;99.90
7155;DHT22;3619;53.784;10.440;2023-04-01T05:01:34;6.70;99.90
7155;DHT22;3619;53.784;10.440;2023-04-01T05:04:01;6.60;99.90
7155;DHT22;3619;53.784;10.440;2023-04-01T05:06:29;6.50;99.90
7155;DHT22;3619;53.784;10.440;2023-04-01T05:08:56;6.40;99.90
7155;DHT22;3619;53.784;10.440;2023-04-01T05:11:23;6.40;99.90
7155;DHT22;3619;53.784;10.440;2023-04-01T05:13:52;6.40;99.90
7155;DHT22;3619;53.784;10.440;2023-04-01T05:16:20;6.20;99.90
7155;DHT22;3619;53.784;10.440;2023-04-01T05:18:47;6.20;99.90
7155;DHT22;3619;53.784;10.440;2023-04-01T05:21:15;6.10;99.90
7155;DHT22;3619;53.784;10.440;2023-04-01T05:23:42;6.10;99.90
7155;DHT22;3619;53.784;10.440;2023-04-01T05:26:10;6.10;99.90
7155;DHT22;3619;53.784;10.440;2023-04-01T05:28:37;6.10;99.90
7155;DHT22;3619;53.784;10.440;2023-04-01T05:31:06;6.10;99.90
7155;DHT22;3619;53.784;10.440;2023-04-01T05:33:33;6.10;99.90
7155;DHT22;3619;53.784;10.440;2023-04-01T05:36:06;6.00;99.90
7155;DHT22;3619;53.784;10.440;2023-04-01T05:38:33;5.90;99.90
7155;DHT22;3619;53.784;10.440;2023-04-01T05:41:03;5.90;99.90
7155;DHT22;3619;53.784;10.440;2023-04-01T05:43:30;5.90;99.90
7155;DHT22;3619;53.784;10.440;2023-04-01T05:45:57;5.80;99.90
7155;DHT22;3619;53.784;10.440;2023-04-01T05:48:25;5.80;99.90
7155;DHT22;3619;53.784;10.440;2023-04-01T05:50:51;5.80;99.90
7155;DHT22;3619;53.784;10.440;2023-04-01T05:53:20;5.80;99.90
7155;DHT22;3619;53.784;10.440;2023-04-01T05:55:47;5.80;99.90
7155;DHT22;3619;53.784;10.440;2023-04-01T05:58:15;5.80;99.90
7155;DHT22;3619;53.784;10.440;2023-04-01T06:00:42;5.80;99.90
7155;DHT22;3619;53.784;10.440;2023-04-01T06:03:09;5.70;99.90
7155;DHT22;3619;53.784;10.440;2023-04-01T06:05:40;5.80;99.90
7155;DHT22;3619;53.784;10.440;2023-04-01T06:08:11;5.80;99.90
7155;DHT22;3619;53.784;10.440;2023-04-01T06:10:48;5.80;99.90
7155;DHT22;3619;53.784;10.440;2023-04-01T06:13:26;5.80;99.90
7155;DHT22;3619;53.784;10.440;2023-04-01T06:16:01;5.80;99.90
7155;DHT22;3619;53.784;10.440;2023-04-01T06:18:53;5.70;99.90
7155;DHT22;3619;53.784;10.440;2023-04-01T06:21:48;5.60;99.90
7155;DHT22;3619;53.784;10.440;2023-04-01T06:24:31;5.60;99.90
7155;DHT22;3619;53.784;10.440;2023-04-01T06:27:07;5.60;99.90
7155;DHT22;3619;53.784;10.440;2023-04-01T06:30:01;5.60;99.90
7155;DHT22;3619;53.784;10.440;2023-04-01T06:32:52;5.60;99.90
7155;DHT22;3619;53.784;10.440;2023-04-01T06:35:35;5.50;99.90
7155;DHT22;3619;53.784;10.440;2023-04-01T06:38:24;5.50;99.90
7155;DHT22;3619;53.784;10.440;2023-04-01T06:41:33;5.50;99.90
7155;DHT22;3619;53.784;10.440;2023-04-01T06:44:13;5.50;99.90
7155;DHT22;3619;53.784;10.440;2023-04-01T06:46:45;5.60;99.90
7155;DHT22;3619;53.784;10.440;2023-04-01T06:49:32;5.60;99.90
7155;DHT22;3619;53.784;10.440;2023-04-01T06:52:09;5.60;99.90
7155;DHT22;3619;53.784;10.440;2023-04-01T06:54:45;5.60;99.90
7155;DHT22;3619;53.784;10.440;2023-04-01T06:57:22;5.70;99.90
7155;DHT22;3619;53.784;10.440;2023-04-01T06:59:54;5.60;99.90
7155;DHT22;3619;53.784;10.440;2023-04-01T07:02:28;5.60;99.90
7155;DHT22;3619;53.784;10.440;2023-04-01T07:04:57;5.60;99.90
7155;DHT22;3619;53.784;10.440;2023-04-01T07:07:32;5.50;99.90
7155;DHT22;3619;53.784;10.440;2023-04-01T07:10:05;5.60;99.90
7155;DHT22;3619;53.784;10.440;2023-04-01T07:12:43;5.50;99.90
7155;DHT22;3619;53.784;10.440;2023-04-01T07:15:17;5.40;99.90
7155;DHT22;3619;53.784;10.440;2023-04-01T07:17:50;5.50;99.90
7155;DHT22;3619;53.784;10.440;2023-04-01T07:20:27;5.50;99.90
7155;DHT22;3619;53.784;10.440;2023-04-01T07:22:59;5.60;99.90
7155;DHT22;3619;53.784;10.440;2023-04-01T07:25:31;5.60;99.90
7155;DHT22;3619;53.784;10.440;2023-04-01T07:28:02;5.70;99.90
7155;DHT22;3619;53.784;10.440;2023-04-01T07:30:46;5.50;99.90
7155;DHT22;3619;53.784;10.440;2023-04-01T07:33:19;5.60;99.90
7155;DHT22;3619;53.784;10.440;2023-04-01T07:35:58;5.60;99.90
7155;DHT22;3619;53.784;10.440;2023-04-01T07:38:36;5.50;99.90
7155;DHT22;3619;53.784;10.440;2023-04-01T07:41:18;5.50;99.90
7155;DHT22;3619;53.784;10.440;2023-04-01T07:44:02;5.50;99.90
7155;DHT22;3619;53.784;10.440;2023-04-01T07:47:01;5.40;99.90
7155;DHT22;3619;53.784;10.440;2023-04-01T07:49:36;5.40;99.90
7155;DHT22;3619;53.784;10.440;2023-04-01T07:52:11;5.40;99.90
7155;DHT22;3619;53.784;10.440;2023-04-01T07:54:45;5.40;99.90
7155;DHT22;3619;53.784;10.440;2023-04-01T07:57:19;5.50;99.90
7155;DHT22;3619;53.784;10.440;2023-04-01T07:59:57;5.50;99.90
7155;DHT22;3619;53.784;10.440;2023-04-01T08:02:32;5.50;99.90
7155;DHT22;3619;53.784;10.440;2023-04-01T08:05:12;5.50;99.90
7155;DHT22;3619;53.784;10.440;2023-04-01T08:07:45;5.50;99.90
7155;DHT22;3619;53.784;10.440;2023-04-01T08:10:19;5.60;99.90
7155;DHT22;3619;53.784;10.440;2023-04-01T08:13:01;5.50;99.90
7155;DHT22;3619;53.784;10.440;2023-04-01T08:15:37;5.60;99.90
7155;DHT22;3619;53.784;10.440;2023-04-01T08:18:14;5.60;99.90
7155;DHT22;3619;53.784;10.440;2023-04-01T08:20:47;5.60;99.90
7155;DHT22;3619;53.784;10.440;2023-04-01T08:23:17;5.60;99.90
7155;DHT22;3619;53.784;10.440;2023-04-01T08:25:51;5.60;99.90
7155;DHT22;3619;53.784;10.440;2023-04-01T08:28:39;5.70;99.90
7155;DHT22;3619;53.784;10.440;2023-04-01T08:31:18;5.70;99.90
7155;DHT22;3619;53.784;10.440;2023-04-01T08:33:49;5.60;99.90
7155;DHT22;3619;53.784;10.440;2023-04-01T08:36:21;5.70;99.90
7155;DHT22;3619;53.784;10.440;2023-04-01T08:38:53;5.60;99.90
7155;DHT22;3619;53.784;10.440;2023-04-01T08:45:04;5.70;99.90
7155;DHT22;3619;53.784;10.440;2023-04-01T08:48:00;5.60;99.90
7155;DHT22;3619;53.784;10.440;2023-04-01T08:51:05;5.60;99.90
7155;DHT22;3619;53.784;10.440;2023-04-01T08:53:50;5.60;99.90
7155;DHT22;3619;53.784;10.440;2023-04-01T08:56:26;5.60;99.90
7155;DHT22;3619;53.784;10.440;2023-04-01T08:59:21;5.60;99.90
7155;DHT22;3619;53.784;10.440;2023-04-01T09:02:04;5.60;99.90
7155;DHT22;3619;53.784;10.440;2023-04-01T09:05:12;5.80;99.90
7155;DHT22;3619;53.784;10.440;2023-04-01T09:07:52;5.70;99.90
7155;DHT22;3619;53.784;10.440;2023-04-01T09:10:41;5.80;99.90
7155;DHT22;3619;53.784;10.440;2023-04-01T09:13:41;5.80;99.90
7155;DHT22;3619;53.784;10.440;2023-04-01T09:16:31;5.70;99.90
7155;DHT22;3619;53.784;10.440;2023-04-01T09:19:22;5.70;99.90
7155;DHT22;3619;53.784;10.440;2023-04-01T09:22:15;5.80;99.90
7155;DHT22;3619;53.784;10.440;2023-04-01T09:27:44;5.80;99.90
7155;DHT22;3619;53.784;10.440;2023-04-01T09:30:46;5.80;99.90
7155;DHT22;3619;53.784;10.440;2023-04-01T09:33:50;5.80;99.90
7155;DHT22;3619;53.784;10.440;2023-04-01T09:36:38;5.80;99.90
7155;DHT22;3619;53.784;10.440;2023-04-01T09:42:22;5.70;99.90
7155;DHT22;3619;53.784;10.440;2023-04-01T09:44:59;5.80;99.90
7155;DHT22;3619;53.784;10.440;2023-04-01T09:47:43;5.80;99.90
7155;DHT22;3619;53.784;10.440;2023-04-01T09:50:35;5.80;99.90
7155;DHT22;3619;53.784;10.440;2023-04-01T09:53:27;5.80;99.90
7155;DHT22;3619;53.784;10.440;2023-04-01T09:59:42;6.00;99.90
7155;DHT22;3619;53.784;10.440;2023-04-01T10:02:44;6.00;99.90
7155;DHT22;3619;53.784;10.440;2023-04-01T10:05:54;6.00;99.90
7155;DHT22;3619;53.784;10.440;2023-04-01T10:08:40;6.00;99.90
7155;DHT22;3619;53.784;10.440;2023-04-01T10:14:46;6.10;99.90
7155;DHT22;3619;53.784;10.440;2023-04-01T10:17:32;6.10;99.90
7155;DHT22;3619;53.784;10.440;2023-04-01T10:20:16;6.10;99.90
7155;DHT22;3619;53.784;10.440;2023-04-01T10:23:08;6.00;99.90
7155;DHT22;3619;53.784;10.440;2023-04-01T10:26:09;6.00;99.90
7155;DHT22;3619;53.784;10.440;2023-04-01T10:28:56;6.10;99.90
7155;DHT22;3619;53.784;10.440;2023-04-01T10:34:56;6.10;99.90
7155;DHT22;3619;53.784;10.440;2023-04-01T10:40:38;6.00;99.90
7155;DHT22;3619;53.784;10.440;2023-04-01T10:46:38;6.00;99.90
7155;DHT22;3619;53.784;10.440;2023-04-01T10:49:43;6.00;99.90
7155;DHT22;3619;53.784;10.440;2023-04-01T10:52:29;5.90;99.90
7155;DHT22;3619;53.784;10.440;2023-04-01T10:55:19;6.00;99.90
7155;DHT22;3619;53.784;10.440;2023-04-01T10:58:17;6.00;99.90
7155;DHT22;3619;53.784;10.440;2023-04-01T11:01:12;6.00;99.90
7155;DHT22;3619;53.784;10.440;2023-04-01T11:04:01;6.10;99.90
7155;DHT22;3619;53.784;10.440;2023-04-01T11:06:56;6.20;99.90
7155;DHT22;3619;53.784;10.440;2023-04-01T11:10:03;6.20;99.90
7155;DHT22;3619;53.784;10.440;2023-04-01T11:18:54;6.10;99.90
7155;DHT22;3619;53.784;10.440;2023-04-01T11:28:11;6.10;99.90
7155;DHT22;3619;53.784;10.440;2023-04-01T11:30:53;6.20;99.90
7155;DHT22;3619;53.784;10.440;2023-04-01T11:33:30;6.10;99.90
7155;DHT22;3619;53.784;10.440;2023-04-01T11:36:09;6.10;99.90
7155;DHT22;3619;53.784;10.440;2023-04-01T11:39:01;6.00;99.90
7155;DHT22;3619;53.784;10.440;2023-04-01T11:41:35;6.00;99.90
7155;DHT22;3619;53.784;10.440;2023-04-01T11:44:16;5.80;99.90
7155;DHT22;3619;53.784;10.440;2023-04-01T11:46:56;5.80;99.90
7155;DHT22;3619;53.784;10.440;2023-04-01T11:49:33;5.70;99.90
7155;DHT22;3619;53.784;10.440;2023-04-01T11:52:18;5.70;99.90
7155;DHT22;3619;53.784;10.440;2023-04-01T11:55:19;5.70;99.90
7155;DHT22;3619;53.784;10.440;2023-04-01T11:58:18;5.80;99.90
7155;DHT22;3619;53.784;10.440;2023-04-01T12:04:18;5.60;99.90
7155;DHT22;3619;53.784;10.440;2023-04-01T12:06:56;5.70;99.90
7155;DHT22;3619;53.784;10.440;2023-04-01T12:09:35;5.60;99.90
7155;DHT22;3619;53.784;10.440;2023-04-01T12:12:15;5.60;99.90
7155;DHT22;3619;53.784;10.440;2023-04-01T12:14:50;5.60;99.90
7155;DHT22;3619;53.784;10.440;2023-04-01T12:17:32;5.60;99.90
7155;DHT22;3619;53.784;10.440;2023-04-01T12:20:21;5.70;99.90
7155;DHT22;3619;53.784;10.440;2023-04-01T12:22:56;5.60;99.90
7155;DHT22;3619;53.784;10.440;2023-04-01T12:25:45;5.50;99.90
7155;DHT22;3619;53.784;10.440;2023-04-01T12:28:24;5.50;99.90
7155;DHT22;3619;53.784;10.440;2023-04-01T12:31:06;5.40;99.90
7155;DHT22;3619;53.784;10.440;2023-04-01T12:34:09;5.40;99.90
7155;DHT22;3619;53.784;10.440;2023-04-01T12:36:50;5.30;99.90
7155;DHT22;3619;53.784;10.440;2023-04-01T12:39:37;5.30;99.90
7155;DHT22;3619;53.784;10.440;2023-04-01T12:42:18;5.30;99.90
7155;DHT22;3619;53.784;10.440;2023-04-01T12:45:02;5.40;99.90
7155;DHT22;3619;53.784;10.440;2023-04-01T12:47:53;5.40;99.90
7155;DHT22;3619;53.784;10.440;2023-04-01T12:50:38;5.40;99.90
7155;DHT22;3619;53.784;10.440;2023-04-01T12:53:30;5.40;99.90
7155;DHT22;3619;53.784;10.440;2023-04-01T12:56:02;5.50;99.90
7155;DHT22;3619;53.784;10.440;2023-04-01T12:58:51;5.40;99.90
7155;DHT22;3619;53.784;10.440;2023-04-01T13:01:29;5.40;99.90
7155;DHT22;3619;53.784;10.440;2023-04-01T13:04:48;5.40;99.90
7155;DHT22;3619;53.784;10.440;2023-04-01T13:07:44;5.40;99.90
7155;DHT22;3619;53.784;10.440;2023-04-01T13:10:27;5.30;99.90
7155;DHT22;3619;53.784;10.440;2023-04-01T13:13:28;5.40;99.90
7155;DHT22;3619;53.784;10.440;2023-04-01T13:16:02;5.40;99.90
7155;DHT22;3619;53.784;10.440;2023-04-01T13:18:39;5.40;99.90
7155;DHT22;3619;53.784;10.440;2023-04-01T13:21:15;5.30;99.90
7155;DHT22;3619;53.784;10.440;2023-04-01T13:23:51;5.30;99.90
7155;DHT22;3619;53.784;10.440;2023-04-01T13:26:39;5.20;99.90
7155;DHT22;3619;53.784;10.440;2023-04-01T13:29:20;5.30;99.90
7155;DHT22;3619;53.784;10.440;2023-04-01T13:32:00;5.20;99.90
7155;DHT22;3619;53.784;10.440;2023-04-01T13:34:38;5.30;99.90
7155;DHT22;3619;53.784;10.440;2023-04-01T13:37:27;5.40;99.90
7155;DHT22;3619;53.784;10.440;2023-04-01T13:40:12;5.40;99.90
7155;DHT22;3619;53.784;10.440;2023-04-01T13:42:47;5.40;99.90
7155;DHT22;3619;53.784;10.440;2023-04-01T13:45:42;5.40;99.90
7155;DHT22;3619;53.784;10.440;2023-04-01T13:54:43;5.30;99.90
7155;DHT22;3619;53.784;10.440;2023-04-01T13:57:30;5.20;99.90
7155;DHT22;3619;53.784;10.440;2023-04-01T14:00:19;5.20;99.90
7155;DHT22;3619;53.784;10.440;2023-04-01T14:03:11;5.20;99.90
7155;DHT22;3619;53.784;10.440;2023-04-01T14:05:53;5.20;99.90
7155;DHT22;3619;53.784;10.440;2023-04-01T14:08:40;5.20;99.90
7155;DHT22;3619;53.784;10.440;2023-04-01T14:11:16;5.10;99.90
7155;DHT22;3619;53.784;10.440;2023-04-01T14:13:56;5.00;99.90
7155;DHT22;3619;53.784;10.440;2023-04-01T14:17:06;5.10;99.90
7155;DHT22;3619;53.784;10.440;2023-04-01T14:20:08;5.10;99.90
7155;DHT22;3619;53.784;10.440;2023-04-01T14:22:50;5.10;99.90
7155;DHT22;3619;53.784;10.440;2023-04-01T14:25:43;5.10;99.90
7155;DHT22;3619;53.784;10.440;2023-04-01T14:28:19;5.00;99.90
7155;DHT22;3619;53.784;10.440;2023-04-01T14:31:14;5.00;99.90
7155;DHT22;3619;53.784;10.440;2023-04-01T14:33:56;5.00;99.90
7155;DHT22;3619;53.784;10.440;2023-04-01T14:36:35;5.00;99.90
7155;DHT22;3619;53.784;10.440;2023-04-01T14:39:29;5.10;99.90
7155;DHT22;3619;53.784;10.440;2023-04-01T14:42:20;5.00;99.90
7155;DHT22;3619;53.784;10.440;2023-04-01T14:45:02;5.10;99.90
7155;DHT22;3619;53.784;10.440;2023-04-01T14:47:47;5.10;99.90
7155;DHT22;3619;53.784;10.440;2023-04-01T14:50:20;5.00;99.90
7155;DHT22;3619;53.784;10.440;2023-04-01T14:52:57;5.00;99.90
7155;DHT22;3619;53.784;10.440;2023-04-01T14:55:31;5.10;99.90
7155;DHT22;3619;53.784;10.440;2023-04-01T14:58:13;5.00;99.90
7155;DHT22;3619;53.784;10.440;2023-04-01T15:00:50;5.00;99.90
7155;DHT22;3619;53.784;10.440;2023-04-01T15:03:24;5.00;99.90
7155;DHT22;3619;53.784;10.440;2023-04-01T15:06:10;5.10;99.90
7155;DHT22;3619;53.784;10.440;2023-04-01T15:08:50;5.10;99.90
7155;DHT22;3619;53.784;10.440;2023-04-01T15:11:27;5.10;99.90
7155;DHT22;3619;53.784;10.440;2023-04-01T15:14:18;5.10;99.90
7155;DHT22;3619;53.784;10.440;2023-04-01T15:16:55;5.00;99.90
7155;DHT22;3619;53.784;10.440;2023-04-01T15:19:33;5.00;99.90
7155;DHT22;3619;53.784;10.440;2023-04-01T15:25:28;4.90;99.90
7155;DHT22;3619;53.784;10.440;2023-04-01T15:28:03;4.90;99.90
7155;DHT22;3619;53.784;10.440;2023-04-01T15:30:38;4.90;99.90
7155;DHT22;3619;53.784;10.440;2023-04-01T15:33:20;4.90;99.90
7155;DHT22;3619;53.784;10.440;2023-04-01T15:35:58;4.80;99.90
7155;DHT22;3619;53.784;10.440;2023-04-01T15:38:34;4.90;99.90
7155;DHT22;3619;53.784;10.440;2023-04-01T15:41:11;4.80;99.90
7155;DHT22;3619;53.784;10.440;2023-04-01T15:43:41;4.70;99.90
7155;DHT22;3619;53.784;10.440;2023-04-01T15:46:19;4.70;99.90
7155;DHT22;3619;53.784;10.440;2023-04-01T15:49:01;4.70;99.90
7155;DHT22;3619;53.784;10.440;2023-04-01T15:51:48;4.70;99.90
7155;DHT22;3619;53.784;10.440;2023-04-01T15:57:18;4.70;99.90
7155;DHT22;3619;53.784;10.440;2023-04-01T15:59:58;4.70;99.90
7155;DHT22;3619;53.784;10.440;2023-04-01T16:02:34;4.70;99.90
7155;DHT22;3619;53.784;10.440;2023-04-01T16:05:07;4.60;99.90
7155;DHT22;3619;53.784;10.440;2023-04-01T16:07:47;4.60;99.90
7155;DHT22;3619;53.784;10.440;2023-04-01T16:10:40;4.50;99.90
7155;DHT22;3619;53.784;10.440;2023-04-01T16:13:24;4.50;99.90
7155;DHT22;3619;53.784;10.440;2023-04-01T16:15:59;4.50;99.90
7155;DHT22;3619;53.784;10.440;2023-04-01T16:21:41;4.40;99.90
7155;DHT22;3619;53.784;10.440;2023-04-01T16:24:17;4.40;99.90
7155;DHT22;3619;53.784;10.440;2023-04-01T16:26:51;4.40;99.90
7155;DHT22;3619;53.784;10.440;2023-04-01T16:29:27;4.40;99.90
7155;DHT22;3619;53.784;10.440;2023-04-01T16:32:02;4.40;99.90
7155;DHT22;3619;53.784;10.440;2023-04-01T16:34:36;4.40;99.90
7155;DHT22;3619;53.784;10.440;2023-04-01T16:37:09;4.40;99.90
7155;DHT22;3619;53.784;10.440;2023-04-01T16:39:44;4.40;99.90
7155;DHT22;3619;53.784;10.440;2023-04-01T16:42:26;4.30;99.90
7155;DHT22;3619;53.784;10.440;2023-04-01T16:44:56;4.30;99.90
7155;DHT22;3619;53.784;10.440;2023-04-01T16:47:30;4.30;99.90
7155;DHT22;3619;53.784;10.440;2023-04-01T16:50:00;4.30;99.90
7155;DHT22;3619;53.784;10.440;2023-04-01T16:52:48;4.30;99.90
7155;DHT22;3619;53.784;10.440;2023-04-01T16:55:21;4.30;99.90
7155;DHT22;3619;53.784;10.440;2023-04-01T16:57:51;4.30;99.90
7155;DHT22;3619;53.784;10.440;2023-04-01T17:00:25;4.30;99.90
7155;DHT22;3619;53.784;10.440;2023-04-01T17:03:01;4.30;99.90
7155;DHT22;3619;53.784;10.440;2023-04-01T17:05:42;4.30;99.90
7155;DHT22;3619;53.784;10.440;2023-04-01T17:08:20;4.30;99.90
7155;DHT22;3619;53.784;10.440;2023-04-01T17:10:53;4.30;99.90
7155;DHT22;3619;53.784;10.440;2023-04-01T17:13:39;4.30;99.90
7155;DHT22;3619;53.784;10.440;2023-04-01T17:19:04;4.30;99.90
7155;DHT22;3619;53.784;10.440;2023-04-01T17:21:48;4.20;99.90
7155;DHT22;3619;53.784;10.440;2023-04-01T17:24:29;4.20;99.90
7155;DHT22;3619;53.784;10.440;2023-04-01T17:27:10;4.20;99.90
7155;DHT22;3619;53.784;10.440;2023-04-01T17:29:53;4.10;99.90
7155;DHT22;3619;53.784;10.440;2023-04-01T17:32:34;4.10;99.90
7155;DHT22;3619;53.784;10.440;2023-04-01T17:35:10;4.10;99.90
7155;DHT22;3619;53.784;10.440;2023-04-01T17:37:50;4.10;99.90
7155;DHT22;3619;53.784;10.440;2023-04-01T17:40:31;4.00;99.90
7155;DHT22;3619;53.784;10.440;2023-04-01T17:43:06;4.00;99.90
7155;DHT22;3619;53.784;10.440;2023-04-01T17:45:42;4.00;99.90
7155;DHT22;3619;53.784;10.440;2023-04-01T17:48:21;3.90;99.90
7155;DHT22;3619;53.784;10.440;2023-04-01T17:51:01;3.90;99.90
7155;DHT22;3619;53.784;10.440;2023-04-01T17:53:39;3.90;99.90
7155;DHT22;3619;53.784;10.440;2023-04-01T17:56:19;3.90;99.90
7155;DHT22;3619;53.784;10.440;2023-04-01T17:58:56;3.80;99.90
7155;DHT22;3619;53.784;10.440;2023-04-01T18:01:34;3.70;99.90
7155;DHT22;3619;53.784;10.440;2023-04-01T18:04:37;3.80;99.90
7155;DHT22;3619;53.784;10.440;2023-04-01T18:07:24;3.80;99.90